Time;durP1;ratioP1;P1;durP2;ratioP2;P2;SDS_P1;SDS_P2;PMS_P1;PMS_P2;Temp;Humidity;BMP_temperature;BMP_pressure;BME280_temperature;BME280_humidity;BME280_pressure;Samples;Min_cycle;Max_cycle;Signal;HPM_P1;HPM_P2
2023/08/24 00:01:43;;;;;;;3.33;2.30;;;22.30;99.90;;;;;;5059976;28;20478;-67
2023/08/24 00:04:13;;;;;;;2.75;1.90;;;22.30;99.90;;;;;;5068942;28;20267;-68
2023/08/24 00:06:39;;;;;;;2.95;2.13;;;22.30;99.90;;;;;;5075770;28;20300;-67
2023/08/24 00:09:05;;;;;;;3.67;2.15;;;22.20;99.90;;;;;;5058702;28;20192;-69
2023/08/24 00:11:31;;;;;;;4.93;2.00;;;22.20;99.90;;;;;;5048878;28;20263;-67
2023/08/24 00:13:59;;;;;;;3.70;2.30;;;22.10;99.90;;;;;;5041371;28;20432;-67
2023/08/24 00:16:24;;;;;;;2.58;1.88;;;22.10;99.90;;;;;;5070311;28;20183;-67
2023/08/24 00:18:52;;;;;;;2.95;2.10;;;22.00;99.90;;;;;;5058253;28;20200;-68
2023/08/24 00:21:22;;;;;;;3.28;2.20;;;22.00;99.90;;;;;;5055335;28;20267;-68
2023/08/24 00:23:49;;;;;;;4.07;2.30;;;21.90;99.90;;;;;;5065223;28;20230;-68
2023/08/24 00:26:20;;;;;;;2.17;1.80;;;21.90;99.90;;;;;;5060319;28;20207;-67
2023/08/24 00:28:45;;;;;;;4.32;2.13;;;21.80;99.90;;;;;;5062683;28;20200;-67
2023/08/24 00:31:11;;;;;;;3.22;2.35;;;21.80;99.90;;;;;;5051135;28;20224;-67
2023/08/24 00:33:37;;;;;;;3.65;2.30;;;21.70;99.90;;;;;;5049108;28;20187;-67
2023/08/24 00:36:07;;;;;;;3.88;2.10;;;21.70;99.90;;;;;;5054339;28;20173;-66
2023/08/24 00:38:33;;;;;;;3.25;1.70;;;21.70;99.90;;;;;;5065668;28;20488;-66
2023/08/24 00:41:02;;;;;;;2.45;1.92;;;21.70;99.90;;;;;;5056085;28;20200;-67
2023/08/24 00:43:28;;;;;;;3.20;1.95;;;21.70;99.90;;;;;;5054370;28;20244;-67
2023/08/24 00:45:56;;;;;;;2.72;2.00;;;21.70;99.90;;;;;;5058476;28;20199;-68
2023/08/24 00:48:28;;;;;;;4.07;2.10;;;21.70;99.90;;;;;;5053818;28;20276;-68
2023/08/24 00:51:05;;;;;;;3.78;2.00;;;21.70;99.90;;;;;;5038105;28;20192;-67
2023/08/24 00:53:33;;;;;;;2.72;1.90;;;21.70;99.90;;;;;;5053121;28;20207;-68
2023/08/24 00:55:59;;;;;;;4.40;1.90;;;21.70;99.90;;;;;;5058418;28;20169;-68
2023/08/24 00:58:29;;;;;;;4.00;2.20;;;21.70;99.90;;;;;;5057536;28;20168;-67
2023/08/24 01:01:01;;;;;;;2.50;2.00;;;21.60;99.90;;;;;;5057819;28;20184;-67
2023/08/24 01:03:29;;;;;;;2.20;1.90;;;21.60;99.90;;;;;;5057846;28;20204;-66
2023/08/24 01:05:55;;;;;;;2.97;1.92;;;21.60;99.90;;;;;;5056044;28;20204;-68
2023/08/24 01:08:22;;;;;;;3.53;1.88;;;21.50;99.90;;;;;;5058025;28;20177;-67
2023/08/24 01:11:07;;;;;;;4.82;2.00;;;21.50;99.90;;;;;;5058462;28;20199;-67
2023/08/24 01:13:50;;;;;;;2.65;1.95;;;21.50;99.90;;;;;;5056825;28;20200;-67
2023/08/24 01:16:27;;;;;;;3.53;2.10;;;21.50;99.90;;;;;;5065997;28;20204;-66
2023/08/24 01:18:59;;;;;;;2.60;1.98;;;21.40;99.90;;;;;;5055766;28;20254;-67
2023/08/24 01:21:28;;;;;;;2.22;1.90;;;21.40;99.90;;;;;;5060293;28;20192;-68
2023/08/24 01:24:17;;;;;;;2.95;1.65;;;21.40;99.90;;;;;;5064843;28;20214;-67
2023/08/24 01:26:47;;;;;;;3.47;2.00;;;21.40;99.90;;;;;;5056478;28;20196;-67
2023/08/24 01:29:13;;;;;;;2.70;1.77;;;21.30;99.90;;;;;;5057832;28;20176;-67
2023/08/24 01:31:38;;;;;;;3.53;2.13;;;21.30;99.90;;;;;;5043597;28;20211;-67
2023/08/24 01:34:09;;;;;;;2.70;2.10;;;21.30;99.90;;;;;;5044492;28;20196;-67
2023/08/24 01:36:35;;;;;;;3.35;2.10;;;21.30;99.90;;;;;;5045684;28;20177;-67
2023/08/24 01:39:35;;;;;;;2.60;1.95;;;21.30;99.90;;;;;;5059246;28;20185;-66
2023/08/24 01:42:03;;;;;;;3.75;2.03;;;21.30;99.90;;;;;;5043230;28;20189;-66
2023/08/24 01:44:37;;;;;;;3.40;1.77;;;21.30;99.90;;;;;;5050557;28;20177;-67
2023/08/24 01:47:05;;;;;;;2.40;1.80;;;21.30;99.90;;;;;;5044268;28;20173;-67
2023/08/24 01:49:31;;;;;;;4.93;1.80;;;21.30;99.90;;;;;;5056170;28;20180;-67
2023/08/24 01:51:59;;;;;;;2.42;2.00;;;21.30;99.90;;;;;;5057102;28;20196;-68
2023/08/24 01:54:26;;;;;;;3.30;2.10;;;21.30;99.90;;;;;;5056597;28;20200;-67
2023/08/24 01:56:52;;;;;;;3.90;1.90;;;21.30;99.90;;;;;;5055467;28;20169;-67
2023/08/24 01:59:20;;;;;;;4.50;2.00;;;21.30;99.90;;;;;;5053606;28;20176;-67
2023/08/24 02:01:48;;;;;;;3.38;1.98;;;21.30;99.90;;;;;;5050413;28;20294;-67
2023/08/24 02:04:16;;;;;;;3.88;2.10;;;21.30;99.90;;;;;;5057270;28;20319;-67
2023/08/24 02:06:44;;;;;;;2.10;1.85;;;21.20;99.90;;;;;;5037747;28;20196;-68
2023/08/24 02:09:09;;;;;;;4.10;2.22;;;21.20;99.90;;;;;;5078182;28;20201;-68
2023/08/24 02:11:35;;;;;;;2.70;2.00;;;21.20;99.90;;;;;;5073709;28;20211;-68
2023/08/24 02:14:02;;;;;;;3.20;1.98;;;21.20;99.90;;;;;;5068353;28;20180;-68
2023/08/24 02:16:28;;;;;;;3.03;2.17;;;21.20;99.90;;;;;;5060201;28;20197;-68
2023/08/24 02:18:56;;;;;;;2.40;1.67;;;21.20;99.90;;;;;;5059552;28;20255;-67
2023/08/24 02:21:21;;;;;;;3.20;2.20;;;21.20;99.90;;;;;;5061621;28;20177;-67
2023/08/24 02:23:47;;;;;;;2.50;1.90;;;21.20;99.90;;;;;;5060255;28;20199;-69
2023/08/24 02:26:15;;;;;;;2.80;1.90;;;21.10;99.90;;;;;;5059747;28;20238;-67
2023/08/24 02:28:41;;;;;;;3.70;2.17;;;21.20;99.90;;;;;;5060190;28;20176;-67
2023/08/24 02:31:06;;;;;;;2.67;2.10;;;21.20;99.90;;;;;;5059986;28;20192;-67
2023/08/24 02:33:32;;;;;;;2.85;2.10;;;21.20;99.90;;;;;;5063345;28;20190;-69
2023/08/24 02:35:58;;;;;;;3.17;2.13;;;21.20;99.90;;;;;;5059478;28;20184;-67
2023/08/24 02:38:26;;;;;;;2.70;1.98;;;21.20;99.90;;;;;;5062835;28;20177;-66
2023/08/24 02:41:08;;;;;;;4.35;2.17;;;21.20;99.90;;;;;;5059662;28;20251;-66
2023/08/24 02:43:39;;;;;;;3.33;2.15;;;21.30;99.90;;;;;;5059992;28;20201;-67
2023/08/24 02:46:11;;;;;;;3.25;2.10;;;21.30;99.90;;;;;;5060141;28;20184;-67
2023/08/24 02:48:40;;;;;;;5.20;2.10;;;21.30;99.90;;;;;;5077695;28;20185;-66
2023/08/24 02:51:14;;;;;;;3.10;1.92;;;21.30;99.90;;;;;;5043447;28;20274;-67
2023/08/24 02:53:39;;;;;;;5.13;2.20;;;21.40;99.90;;;;;;5058141;28;20177;-67
2023/08/24 02:56:12;;;;;;;3.22;2.22;;;21.40;99.90;;;;;;5057310;28;20261;-67
2023/08/24 02:58:38;;;;;;;2.80;2.03;;;21.40;99.90;;;;;;5045825;28;20180;-67
2023/08/24 03:01:09;;;;;;;3.17;2.15;;;21.40;99.90;;;;;;5059952;28;20211;-67
2023/08/24 03:03:37;;;;;;;3.13;2.30;;;21.50;99.90;;;;;;5059707;28;20255;-67
2023/08/24 03:06:05;;;;;;;4.05;2.20;;;21.50;99.90;;;;;;5059771;28;20184;-67
2023/08/24 03:08:32;;;;;;;7.00;2.03;;;21.50;99.90;;;;;;5059899;28;20191;-67
2023/08/24 03:10:59;;;;;;;3.72;2.47;;;21.50;99.90;;;;;;5059557;28;20224;-67
2023/08/24 03:13:26;;;;;;;3.05;2.28;;;21.50;99.90;;;;;;5057888;28;20192;-67
2023/08/24 03:15:52;;;;;;;2.92;2.17;;;21.50;99.90;;;;;;5065502;28;20178;-67
2023/08/24 03:18:18;;;;;;;3.58;2.50;;;21.50;99.90;;;;;;5050809;28;20196;-66
2023/08/24 03:20:45;;;;;;;5.95;2.20;;;21.50;99.90;;;;;;5076603;28;20176;-67
2023/08/24 03:23:10;;;;;;;3.08;2.10;;;21.50;99.90;;;;;;5060281;28;20176;-67
2023/08/24 03:25:38;;;;;;;2.20;2.00;;;21.50;99.90;;;;;;5070699;28;20207;-67
2023/08/24 03:28:04;;;;;;;3.47;2.17;;;21.40;99.90;;;;;;5057045;28;20212;-67
2023/08/24 03:30:32;;;;;;;4.55;3.70;;;21.40;99.90;;;;;;5055328;28;20177;-67
2023/08/24 03:32:59;;;;;;;17.92;14.40;;;21.40;99.90;;;;;;5059208;28;20211;-67
2023/08/24 03:35:27;;;;;;;8.52;6.30;;;21.40;99.90;;;;;;5060851;28;20226;-67
2023/08/24 03:37:55;;;;;;;5.72;4.10;;;21.30;99.90;;;;;;5057833;28;20173;-66
2023/08/24 03:40:22;;;;;;;4.85;3.13;;;21.30;99.90;;;;;;5062847;28;20174;-66
2023/08/24 03:42:48;;;;;;;3.92;2.97;;;21.20;99.90;;;;;;5048530;28;20196;-67
2023/08/24 03:45:14;;;;;;;5.70;3.50;;;21.20;99.90;;;;;;5062472;28;20212;-67
2023/08/24 03:47:42;;;;;;;4.75;2.70;;;21.10;99.90;;;;;;5067029;28;20168;-67
2023/08/24 03:50:08;;;;;;;4.78;2.80;;;21.10;99.90;;;;;;5039219;28;20172;-67
2023/08/24 03:52:33;;;;;;;4.07;2.58;;;21.10;99.90;;;;;;5051972;28;20201;-64
2023/08/24 03:54:59;;;;;;;3.13;2.60;;;21.10;99.90;;;;;;5073921;28;20226;-67
2023/08/24 03:57:25;;;;;;;4.40;2.28;;;21.10;99.90;;;;;;5050142;28;20263;-67
2023/08/24 03:59:50;;;;;;;4.68;2.20;;;21.10;99.90;;;;;;5058540;28;20304;-67
2023/08/24 04:02:16;;;;;;;3.67;2.30;;;21.10;99.90;;;;;;5042847;28;20208;-67
2023/08/24 04:04:42;;;;;;;3.17;2.13;;;21.20;99.90;;;;;;5058538;28;20191;-67
2023/08/24 04:07:07;;;;;;;3.22;2.20;;;21.10;99.90;;;;;;5058641;28;20196;-68
2023/08/24 04:09:33;;;;;;;3.33;2.35;;;21.10;99.90;;;;;;5058827;28;20267;-67
2023/08/24 04:11:59;;;;;;;3.35;2.70;;;21.10;99.90;;;;;;5058883;28;20188;-67
2023/08/24 04:14:26;;;;;;;2.90;2.20;;;21.10;99.90;;;;;;5056984;28;20192;-68
2023/08/24 04:16:52;;;;;;;3.63;2.60;;;21.10;99.90;;;;;;5061513;28;20248;-68
2023/08/24 04:19:18;;;;;;;2.25;1.95;;;21.10;99.90;;;;;;5057843;28;20204;-67
2023/08/24 04:21:45;;;;;;;4.22;2.45;;;21.20;99.90;;;;;;5047496;28;20197;-67
2023/08/24 04:24:13;;;;;;;3.70;2.72;;;21.20;99.90;;;;;;5044215;28;20178;-67
2023/08/24 04:26:39;;;;;;;4.07;2.50;;;21.20;99.90;;;;;;5062996;28;20177;-66
2023/08/24 04:29:04;;;;;;;5.07;2.78;;;21.20;99.90;;;;;;5057472;28;20263;-67
2023/08/24 04:31:30;;;;;;;3.97;2.70;;;21.20;99.90;;;;;;5057966;28;20189;-67
2023/08/24 04:33:58;;;;;;;3.15;2.38;;;21.20;99.90;;;;;;5057524;28;20172;-67
2023/08/24 04:36:23;;;;;;;3.58;2.17;;;21.20;99.90;;;;;;5056170;28;20176;-66
2023/08/24 04:38:49;;;;;;;3.30;2.22;;;21.20;99.90;;;;;;5057616;28;20176;-68
2023/08/24 04:41:15;;;;;;;2.88;2.22;;;21.20;99.90;;;;;;5058128;28;20207;-68
2023/08/24 04:43:41;;;;;;;6.78;3.70;;;21.20;99.90;;;;;;5058217;28;20191;-69
2023/08/24 04:46:06;;;;;;;5.03;3.92;;;21.20;99.90;;;;;;5058136;28;20187;-71
2023/08/24 04:48:34;;;;;;;4.63;3.70;;;21.20;99.90;;;;;;5058008;28;20219;-70
2023/08/24 04:51:03;;;;;;;4.32;3.40;;;21.20;99.90;;;;;;5057492;28;20201;-67
2023/08/24 04:53:32;;;;;;;4.15;2.95;;;21.20;99.90;;;;;;5057973;28;20169;-68
2023/08/24 04:55:57;;;;;;;3.20;2.78;;;21.30;99.90;;;;;;5054856;28;20201;-66
2023/08/24 04:58:24;;;;;;;3.00;2.40;;;21.30;99.90;;;;;;5044018;28;20200;-67
2023/08/24 05:00:50;;;;;;;2.65;2.13;;;21.30;99.90;;;;;;5057015;28;20180;-67
2023/08/24 05:03:16;;;;;;;6.30;2.17;;;21.30;99.90;;;;;;5059034;28;20225;-67
2023/08/24 05:05:41;;;;;;;2.55;2.15;;;21.20;99.90;;;;;;5058336;28;20218;-68
2023/08/24 05:08:09;;;;;;;4.13;2.10;;;21.20;99.90;;;;;;5057687;28;20180;-66
2023/08/24 05:10:38;;;;;;;2.90;2.20;;;21.20;99.90;;;;;;5063641;28;20169;-67
2023/08/24 05:13:04;;;;;;;3.63;2.30;;;21.20;99.90;;;;;;5068048;28;20176;-66
2023/08/24 05:15:33;;;;;;;4.95;2.50;;;21.20;99.90;;;;;;5057513;28;20196;-66
2023/08/24 05:17:59;;;;;;;5.43;2.67;;;21.20;99.90;;;;;;5057683;28;20181;-68
2023/08/24 05:20:28;;;;;;;4.75;2.92;;;21.10;99.90;;;;;;5058175;28;20169;-64
2023/08/24 05:22:57;;;;;;;3.60;2.42;;;21.10;99.90;;;;;;5057381;28;20176;-66
2023/08/24 05:25:23;;;;;;;2.90;2.38;;;21.00;99.90;;;;;;5061797;28;20258;-66
2023/08/24 05:27:51;;;;;;;4.13;2.42;;;21.00;99.90;;;;;;5077618;28;20329;-65
2023/08/24 05:30:19;;;;;;;4.07;2.80;;;20.90;99.90;;;;;;5067963;28;20180;-66
2023/08/24 05:32:47;;;;;;;3.95;2.78;;;20.90;99.90;;;;;;5057611;28;20281;-65
2023/08/24 05:35:13;;;;;;;3.47;2.53;;;20.90;99.90;;;;;;5052609;28;20177;-65
2023/08/24 05:37:39;;;;;;;4.38;2.58;;;20.90;99.90;;;;;;5054456;28;20257;-66
2023/08/24 05:40:07;;;;;;;3.47;2.80;;;20.90;99.90;;;;;;5054578;28;20251;-64
2023/08/24 05:42:33;;;;;;;4.03;2.63;;;20.80;99.90;;;;;;5056924;28;20181;-65
2023/08/24 05:44:58;;;;;;;2.80;2.50;;;20.90;99.90;;;;;;5057425;28;20222;-65
2023/08/24 05:47:26;;;;;;;3.80;2.50;;;20.80;99.90;;;;;;5060771;28;20184;-65
2023/08/24 05:49:54;;;;;;;3.90;2.53;;;20.90;99.90;;;;;;5061399;28;20202;-65
2023/08/24 05:52:20;;;;;;;3.35;2.30;;;20.90;99.90;;;;;;5060890;28;20240;-66
2023/08/24 05:54:45;;;;;;;3.67;2.58;;;20.90;99.90;;;;;;5060974;28;20175;-67
2023/08/24 05:57:11;;;;;;;4.97;2.72;;;20.90;99.90;;;;;;5061354;28;20204;-73
2023/08/24 05:59:37;;;;;;;3.97;2.92;;;21.00;99.90;;;;;;5061023;28;20177;-74
2023/08/24 06:02:03;;;;;;;5.07;2.58;;;21.00;99.90;;;;;;5060472;28;20228;-74
2023/08/24 06:04:31;;;;;;;3.20;2.58;;;21.00;99.90;;;;;;5060455;28;20228;-73
2023/08/24 06:06:57;;;;;;;4.80;2.50;;;21.10;99.90;;;;;;5060413;28;20180;-72
2023/08/24 06:09:22;;;;;;;5.05;2.90;;;21.10;99.90;;;;;;5060572;28;20176;-73
2023/08/24 06:11:48;;;;;;;4.55;2.50;;;21.10;99.90;;;;;;5060466;28;20211;-73
2023/08/24 06:14:13;;;;;;;4.07;2.42;;;21.10;99.90;;;;;;5060604;28;20176;-74
2023/08/24 06:16:39;;;;;;;5.93;2.55;;;21.10;99.90;;;;;;5060498;28;20411;-74
2023/08/24 06:19:04;;;;;;;4.40;2.63;;;21.10;99.90;;;;;;5060752;28;20259;-73
2023/08/24 06:21:33;;;;;;;4.82;2.58;;;21.20;99.90;;;;;;5060618;28;20183;-72
2023/08/24 06:23:58;;;;;;;4.93;2.45;;;21.20;99.90;;;;;;5060953;28;20183;-73
2023/08/24 06:26:26;;;;;;;4.57;2.70;;;21.20;99.90;;;;;;5060609;28;20172;-74
2023/08/24 06:28:51;;;;;;;5.32;3.05;;;21.20;99.90;;;;;;5060420;28;20204;-71
2023/08/24 06:31:17;;;;;;;5.13;2.70;;;21.30;99.90;;;;;;5060295;28;20273;-73
2023/08/24 06:33:43;;;;;;;4.10;2.38;;;21.30;99.90;;;;;;5060473;28;20195;-71
2023/08/24 06:36:12;;;;;;;3.90;2.40;;;21.30;99.90;;;;;;5060269;28;20172;-74
2023/08/24 06:38:37;;;;;;;5.00;2.80;;;21.30;99.90;;;;;;5060264;28;20192;-73
2023/08/24 06:41:05;;;;;;;3.20;2.55;;;21.30;99.90;;;;;;5060006;28;20204;-73
2023/08/24 06:43:33;;;;;;;6.25;3.20;;;21.40;99.90;;;;;;5077762;28;20165;-73
2023/08/24 06:45:59;;;;;;;5.00;2.58;;;21.40;99.90;;;;;;5060319;28;20268;-72
2023/08/24 06:48:24;;;;;;;6.75;2.63;;;21.40;99.90;;;;;;5076019;28;20306;-73
2023/08/24 06:50:51;;;;;;;3.85;2.40;;;21.50;99.90;;;;;;5061961;28;20228;-73
2023/08/24 06:53:19;;;;;;;4.63;2.53;;;21.50;99.90;;;;;;5059721;28;20193;-71
2023/08/24 06:55:47;;;;;;;3.58;2.58;;;21.60;99.90;;;;;;5059919;28;20169;-73
2023/08/24 06:58:14;;;;;;;3.13;2.40;;;21.60;99.90;;;;;;5059305;28;20271;-72
2023/08/24 07:00:42;;;;;;;3.20;2.60;;;21.70;99.90;;;;;;5059243;28;20379;-74
2023/08/24 07:03:08;;;;;;;3.05;2.22;;;21.70;99.90;;;;;;5059637;28;20231;-73
2023/08/24 07:05:33;;;;;;;5.03;2.47;;;21.80;99.90;;;;;;5059363;28;20197;-74
2023/08/24 07:08:00;;;;;;;3.00;2.42;;;21.90;99.90;;;;;;5059336;28;20181;-74
2023/08/24 07:10:26;;;;;;;3.45;2.20;;;21.90;99.90;;;;;;5059248;28;20169;-73
2023/08/24 07:12:51;;;;;;;5.38;1.98;;;22.00;99.90;;;;;;5058985;28;20195;-73
2023/08/24 07:15:17;;;;;;;2.95;2.33;;;22.00;99.90;;;;;;5059332;28;20238;-73
2023/08/24 07:17:45;;;;;;;3.10;2.50;;;22.10;99.90;;;;;;5059570;28;20213;-73
2023/08/24 07:20:14;;;;;;;4.57;2.50;;;22.20;99.90;;;;;;5056064;28;20165;-72
2023/08/24 07:22:40;;;;;;;3.03;2.13;;;22.30;99.90;;;;;;5059028;28;20263;-73
2023/08/24 07:25:06;;;;;;;5.93;2.38;;;22.30;99.90;;;;;;5055715;28;20283;-73
2023/08/24 07:27:33;;;;;;;3.28;2.30;;;22.40;99.90;;;;;;5057240;28;20240;-72
2023/08/24 07:30:05;;;;;;;2.70;2.25;;;22.40;99.90;;;;;;5079102;28;20183;-74
2023/08/24 07:32:31;;;;;;;2.90;2.20;;;22.50;99.90;;;;;;5078845;28;20291;-73
2023/08/24 07:34:59;;;;;;;4.30;2.00;;;22.60;99.90;;;;;;5060108;28;20256;-73
2023/08/24 07:37:25;;;;;;;2.95;2.28;;;22.70;99.90;;;;;;5058519;28;20204;-71
2023/08/24 07:39:53;;;;;;;2.75;2.25;;;22.80;99.90;;;;;;5058531;28;20416;-73
2023/08/24 07:42:22;;;;;;;3.47;2.20;;;22.90;99.90;;;;;;5058495;28;20188;-71
2023/08/24 07:44:48;;;;;;;2.10;1.90;;;23.00;99.90;;;;;;5058740;28;20197;-70
2023/08/24 07:47:14;;;;;;;2.83;2.20;;;23.10;99.90;;;;;;5058771;28;20204;-69
2023/08/24 07:49:44;;;;;;;4.65;2.42;;;23.10;99.90;;;;;;5058262;28;20250;-72
2023/08/24 07:52:12;;;;;;;2.58;2.00;;;23.20;99.90;;;;;;5058790;28;20192;-73
2023/08/24 07:54:41;;;;;;;3.40;2.20;;;23.30;99.90;;;;;;5075916;28;20215;-73
2023/08/24 07:57:09;;;;;;;3.38;2.05;;;23.40;99.90;;;;;;5058697;28;20169;-72
2023/08/24 07:59:34;;;;;;;2.13;1.92;;;23.40;99.90;;;;;;5058776;28;20177;-69
2023/08/24 08:02:00;;;;;;;3.78;2.00;;;23.50;99.90;;;;;;5075219;28;20207;-72
2023/08/24 08:04:26;;;;;;;3.38;2.00;;;23.60;99.90;;;;;;5058162;28;20251;-73
2023/08/24 08:06:55;;;;;;;2.78;1.95;;;23.70;99.90;;;;;;5058336;28;20214;-74
2023/08/24 08:09:21;;;;;;;2.00;1.80;;;23.70;99.90;;;;;;5074679;28;20172;-70
2023/08/24 08:11:47;;;;;;;2.40;1.95;;;23.80;99.90;;;;;;5074834;28;20286;-75
2023/08/24 08:14:13;;;;;;;3.40;2.20;;;23.90;99.90;;;;;;5073708;28;20232;-73
2023/08/24 08:16:38;;;;;;;2.80;2.25;;;23.90;99.90;;;;;;5058387;28;20168;-74
2023/08/24 08:19:04;;;;;;;2.60;2.05;;;24.10;99.90;;;;;;5058605;28;20165;-71
2023/08/24 08:21:30;;;;;;;3.63;2.03;;;24.10;99.90;;;;;;5058179;28;20262;-71
2023/08/24 08:24:00;;;;;;;4.47;2.03;;;24.20;99.90;;;;;;5058092;28;20210;-74
2023/08/24 08:26:28;;;;;;;3.78;2.22;;;24.30;99.90;;;;;;5058338;28;20192;-72
2023/08/24 08:28:54;;;;;;;2.53;1.80;;;24.40;99.90;;;;;;5058220;28;20204;-73
2023/08/24 08:31:25;;;;;;;3.03;1.90;;;24.50;99.90;;;;;;5057772;28;20196;-70
2023/08/24 08:33:50;;;;;;;2.50;2.00;;;24.50;99.90;;;;;;5058163;28;20169;-73
2023/08/24 08:36:16;;;;;;;3.08;2.10;;;24.70;99.90;;;;;;5057911;28;20193;-71
2023/08/24 08:38:44;;;;;;;5.22;2.00;;;24.80;99.90;;;;;;5057949;28;20168;-72
2023/08/24 08:41:09;;;;;;;3.30;2.00;;;24.90;99.90;;;;;;5057788;28;20176;-72
2023/08/24 08:43:40;;;;;;;5.95;2.55;;;25.00;99.90;;;;;;5058132;28;20183;-72
2023/08/24 08:46:06;;;;;;;3.70;2.17;;;25.10;99.90;;;;;;5041153;28;20173;-72
2023/08/24 08:48:36;;;;;;;3.63;2.00;;;25.20;99.90;;;;;;5037880;28;20205;-72
2023/08/24 08:51:05;;;;;;;2.63;2.20;;;25.20;99.90;;;;;;5037615;28;20197;-74
2023/08/24 08:53:34;;;;;;;4.45;2.28;;;25.40;99.90;;;;;;5038283;28;20165;-74
2023/08/24 08:56:03;;;;;;;2.50;2.13;;;25.40;99.90;;;;;;5055934;28;20180;-73
2023/08/24 08:58:31;;;;;;;4.15;2.20;;;25.50;99.90;;;;;;5057856;28;20409;-72
2023/08/24 09:00:59;;;;;;;4.90;2.20;;;25.60;99.90;;;;;;5074319;28;20260;-72
2023/08/24 09:03:30;;;;;;;2.78;2.35;;;25.70;99.90;;;;;;5075004;28;20197;-73
2023/08/24 09:06:00;;;;;;;3.65;2.60;;;25.80;99.90;;;;;;5044504;28;20176;-74
2023/08/24 09:08:27;;;;;;;3.92;2.35;;;25.90;99.90;;;;;;5057601;28;20188;-71
2023/08/24 09:10:58;;;;;;;3.55;2.05;;;26.00;99.90;;;;;;5057488;28;20204;-71
2023/08/24 09:13:29;;;;;;;3.58;2.17;;;26.20;99.90;;;;;;5058002;28;20169;-73
2023/08/24 09:16:05;;;;;;;3.92;2.67;;;26.20;99.90;;;;;;5057986;28;20267;-76
2023/08/24 09:18:39;;;;;;;3.25;2.20;;;26.30;99.90;;;;;;5057606;28;20211;-73
2023/08/24 09:21:13;;;;;;;3.80;2.40;;;26.50;99.90;;;;;;5060829;28;20286;-71
2023/08/24 09:23:45;;;;;;;2.65;2.05;;;26.60;99.90;;;;;;5061591;28;20187;-74
2023/08/24 09:26:11;;;;;;;3.53;2.25;;;26.70;99.90;;;;;;5061485;28;20222;-73
2023/08/24 09:28:39;;;;;;;2.80;2.10;;;26.80;99.90;;;;;;5079088;28;20180;-73
2023/08/24 09:31:05;;;;;;;3.17;1.85;;;26.90;99.90;;;;;;5061134;28;20216;-74
2023/08/24 09:33:30;;;;;;;3.45;2.00;;;27.00;99.90;;;;;;5076565;28;20168;-75
2023/08/24 09:36:01;;;;;;;2.30;2.00;;;27.20;99.90;;;;;;5061759;28;20474;-72
2023/08/24 09:38:28;;;;;;;4.13;2.10;;;27.30;99.90;;;;;;5061234;28;20196;-74
2023/08/24 09:40:55;;;;;;;3.53;1.90;;;27.40;99.90;;;;;;5061311;28;20184;-73
2023/08/24 09:43:24;;;;;;;3.60;1.95;;;27.40;99.90;;;;;;5041220;28;20231;-72
2023/08/24 09:45:54;;;;;;;3.40;2.20;;;27.50;99.90;;;;;;5041173;28;20201;-73
2023/08/24 09:48:21;;;;;;;3.72;2.13;;;27.50;99.90;;;;;;5052040;28;20185;-74
2023/08/24 09:50:48;;;;;;;2.95;2.25;;;27.60;99.90;;;;;;5061465;28;20177;-71
2023/08/24 09:53:23;;;;;;;2.97;2.00;;;27.70;99.90;;;;;;5061026;28;20386;-73
2023/08/24 09:56:06;;;;;;;2.78;2.05;;;27.80;99.90;;;;;;5061234;28;20239;-72
2023/08/24 09:58:33;;;;;;;2.00;1.52;;;28.00;99.90;;;;;;5070341;28;20176;-74
2023/08/24 10:01:01;;;;;;;4.20;2.00;;;28.10;99.90;;;;;;5061114;28;20187;-74
2023/08/24 10:03:27;;;;;;;3.80;2.08;;;28.30;99.90;;;;;;5077778;28;20196;-72
2023/08/24 10:06:00;;;;;;;5.68;2.42;;;28.40;99.90;;;;;;5060901;28;20176;-73
2023/08/24 10:08:50;;;;;;;3.95;2.08;;;28.50;99.90;;;;;;5061188;28;20164;-73
2023/08/24 10:11:25;;;;;;;4.00;2.00;;;28.60;99.90;;;;;;5060491;28;20280;-71
2023/08/24 10:14:10;;;;;;;2.88;1.85;;;28.70;99.90;;;;;;5060475;28;20248;-72
2023/08/24 10:16:43;;;;;;;3.33;1.83;;;28.70;99.90;;;;;;5060842;28;20267;-73
2023/08/24 10:19:09;;;;;;;1.92;1.60;;;28.80;99.90;;;;;;5060902;28;20271;-69
2023/08/24 10:21:37;;;;;;;1.92;1.63;;;28.80;99.90;;;;;;5061308;28;20206;-71
2023/08/24 10:24:03;;;;;;;2.72;1.90;;;28.80;99.90;;;;;;5060961;28;20173;-72
2023/08/24 10:26:35;;;;;;;2.38;1.73;;;28.90;99.90;;;;;;5060534;28;20171;-72
2023/08/24 10:29:02;;;;;;;3.83;1.73;;;28.90;99.90;;;;;;5059627;28;20165;-73
2023/08/24 10:31:29;;;;;;;2.00;1.70;;;28.90;99.90;;;;;;5054303;28;20200;-73
2023/08/24 10:33:56;;;;;;;3.03;1.98;;;28.80;99.90;;;;;;5060673;28;20172;-71
2023/08/24 10:36:23;;;;;;;2.72;1.75;;;28.80;99.90;;;;;;5060511;28;20172;-76
2023/08/24 10:38:49;;;;;;;2.88;2.03;;;28.80;99.90;;;;;;5060261;28;20173;-72
2023/08/24 10:41:15;;;;;;;2.70;1.88;;;28.80;99.90;;;;;;5056506;28;20284;-73
2023/08/24 10:43:48;;;;;;;2.42;1.90;;;28.80;99.90;;;;;;5040091;28;20215;-72
2023/08/24 10:46:16;;;;;;;2.75;1.98;;;28.90;99.90;;;;;;5040474;28;20180;-73
2023/08/24 10:48:44;;;;;;;2.70;1.98;;;28.90;99.90;;;;;;5039993;28;20197;-74
2023/08/24 10:51:22;;;;;;;2.90;2.03;;;29.00;99.90;;;;;;5058878;28;20217;-69
2023/08/24 10:54:02;;;;;;;2.47;1.75;;;29.10;99.90;;;;;;5060210;28;20195;-73
2023/08/24 10:56:34;;;;;;;3.58;2.00;;;29.20;99.90;;;;;;5059763;28;20207;-73
2023/08/24 10:59:21;;;;;;;3.13;2.25;;;29.30;99.90;;;;;;5060204;28;20168;-74
2023/08/24 11:01:56;;;;;;;1.88;1.60;;;29.40;99.90;;;;;;5059799;28;20172;-73
2023/08/24 11:04:25;;;;;;;2.17;1.67;;;29.50;99.90;;;;;;5045380;28;20198;-73
2023/08/24 11:07:02;;;;;;;3.10;1.90;;;29.60;99.90;;;;;;5059532;28;20180;-73
2023/08/24 11:09:48;;;;;;;6.80;2.30;;;29.70;99.90;;;;;;5058755;28;20199;-71
2023/08/24 11:12:18;;;;;;;4.45;2.10;;;29.80;99.90;;;;;;5059566;28;20226;-73
2023/08/24 11:14:58;;;;;;;3.60;1.98;;;29.80;99.90;;;;;;5059571;28;20168;-73
2023/08/24 11:17:31;;;;;;;2.92;1.92;;;29.90;99.90;;;;;;5059738;28;20195;-74
2023/08/24 11:19:58;;;;;;;3.00;1.80;;;29.90;99.90;;;;;;5068236;28;20180;-75
2023/08/24 11:22:28;;;;;;;2.90;2.00;;;29.90;99.90;;;;;;5059256;28;20197;-70
2023/08/24 11:24:55;;;;;;;4.75;2.00;;;29.90;99.90;;;;;;5059558;28;20172;-73
2023/08/24 11:27:23;;;;;;;2.00;1.65;;;29.90;99.90;;;;;;5059299;28;20176;-75
2023/08/24 11:29:59;;;;;;;2.60;2.05;;;29.90;99.90;;;;;;5059226;28;20176;-73
2023/08/24 11:32:25;;;;;;;3.05;1.80;;;30.00;99.90;;;;;;5076742;28;20453;-73
2023/08/24 11:34:53;;;;;;;3.10;1.95;;;30.00;99.90;;;;;;5059619;28;20168;-73
2023/08/24 11:37:19;;;;;;;1.98;1.52;;;30.00;99.90;;;;;;5058807;28;20192;-74
2023/08/24 11:39:45;;;;;;;2.30;1.98;;;30.00;99.90;;;;;;5058934;28;20195;-73
2023/08/24 11:42:13;;;;;;;2.47;1.83;;;29.90;99.90;;;;;;5059041;28;20168;-73
2023/08/24 11:44:49;;;;;;;2.38;1.85;;;29.90;99.90;;;;;;5058098;28;20196;-73
2023/08/24 11:47:15;;;;;;;3.00;1.80;;;29.90;99.90;;;;;;5059046;28;20206;-73
2023/08/24 11:49:42;;;;;;;2.88;1.95;;;29.80;99.90;;;;;;5059055;28;20192;-72
2023/08/24 11:52:08;;;;;;;2.47;1.75;;;29.70;99.90;;;;;;5058938;28;20218;-73
2023/08/24 11:54:38;;;;;;;4.47;2.00;;;29.60;99.90;;;;;;5058736;28;20168;-72
2023/08/24 11:57:06;;;;;;;2.22;1.70;;;29.50;99.90;;;;;;5058492;28;20175;-71
2023/08/24 11:59:34;;;;;;;3.95;2.20;;;29.50;99.90;;;;;;5059176;28;20384;-72
2023/08/24 12:02:00;;;;;;;2.65;1.73;;;29.40;99.90;;;;;;5058570;28;20176;-73
2023/08/24 12:04:25;;;;;;;3.10;2.10;;;29.30;99.90;;;;;;5058834;28;20176;-72
2023/08/24 12:06:51;;;;;;;2.95;1.92;;;29.20;99.90;;;;;;5058462;28;20176;-73
2023/08/24 12:09:19;;;;;;;2.63;1.90;;;29.20;99.90;;;;;;5058674;28;20180;-74
2023/08/24 12:11:48;;;;;;;6.05;2.10;;;29.10;99.90;;;;;;5058152;28;20200;-72
2023/08/24 12:14:17;;;;;;;2.55;1.98;;;29.10;99.90;;;;;;5057685;28;20499;-73
2023/08/24 12:16:43;;;;;;;2.83;1.88;;;29.00;99.80;;;;;;5038497;28;20177;-71
2023/08/24 12:19:10;;;;;;;3.92;2.10;;;29.00;99.90;;;;;;5038632;28;20196;-72
2023/08/24 12:21:37;;;;;;;2.25;1.60;;;29.00;99.90;;;;;;5038756;28;20307;-73
2023/08/24 12:24:08;;;;;;;3.00;1.75;;;29.00;99.90;;;;;;5038337;28;20177;-72
2023/08/24 12:26:35;;;;;;;2.88;1.83;;;29.00;99.90;;;;;;5038563;28;20193;-73
2023/08/24 12:29:08;;;;;;;3.95;1.98;;;28.90;99.90;;;;;;5041076;28;20177;-73
2023/08/24 12:31:35;;;;;;;2.72;1.77;;;28.90;99.80;;;;;;5058541;28;20200;-72
2023/08/24 12:34:09;;;;;;;3.15;2.00;;;28.90;99.90;;;;;;5058146;28;20197;-72
2023/08/24 12:36:41;;;;;;;3.30;2.28;;;28.90;99.70;;;;;;5058142;28;20184;-74
2023/08/24 12:39:12;;;;;;;3.72;2.00;;;28.80;99.70;;;;;;5057803;28;20187;-72
2023/08/24 12:41:40;;;;;;;2.03;1.80;;;28.80;99.90;;;;;;5057898;28;20208;-76
2023/08/24 12:44:08;;;;;;;1.85;1.70;;;28.70;99.90;;;;;;5058014;28;20267;-74
2023/08/24 12:46:37;;;;;;;2.20;1.75;;;28.70;99.90;;;;;;5057465;28;20191;-72
2023/08/24 12:49:05;;;;;;;3.80;1.98;;;28.70;99.90;;;;;;5057775;28;20201;-73
2023/08/24 12:51:31;;;;;;;3.20;1.90;;;28.60;99.90;;;;;;5057645;28;20197;-72
2023/08/24 12:53:56;;;;;;;2.83;1.73;;;28.50;99.90;;;;;;5057348;28;20203;-73